sensor_id;sensor_type;location;lat;lon;timestamp;noise_LAeq;noise_LA_min;noise_LA_max;noise_LA01;noise_LA95
60872;Laerm;46714;50.118;14.462;2024-03-29T00:00:26;68.00;56.54;75.73;;
60872;Laerm;46714;50.118;14.462;2024-03-29T00:02:51;67.58;56.53;74.24;;
60872;Laerm;46714;50.118;14.462;2024-03-29T00:05:17;72.24;59.16;91.46;;
60872;Laerm;46714;50.118;14.462;2024-03-29T00:07:42;68.11;51.93;76.42;;
60872;Laerm;46714;50.118;14.462;2024-03-29T00:10:08;68.23;58.23;74.96;;
60872;Laerm;46714;50.118;14.462;2024-03-29T00:12:33;67.31;47.98;82.23;;
60872;Laerm;46714;50.118;14.462;2024-03-29T00:14:59;68.37;53.39;79.08;;
60872;Laerm;46714;50.118;14.462;2024-03-29T00:17:24;68.66;56.02;75.93;;
60872;Laerm;46714;50.118;14.462;2024-03-29T00:19:49;68.21;50.36;77.11;;
60872;Laerm;46714;50.118;14.462;2024-03-29T00:22:15;67.93;57.62;74.40;;
60872;Laerm;46714;50.118;14.462;2024-03-29T00:24:40;67.82;47.59;76.37;;
60872;Laerm;46714;50.118;14.462;2024-03-29T00:27:05;68.38;53.80;76.29;;
60872;Laerm;46714;50.118;14.462;2024-03-29T00:29:31;66.24;43.99;74.66;;
60872;Laerm;46714;50.118;14.462;2024-03-29T00:31:57;68.24;52.74;81.55;;
60872;Laerm;46714;50.118;14.462;2024-03-29T00:34:22;66.88;54.03;74.55;;
60872;Laerm;46714;50.118;14.462;2024-03-29T00:36:47;68.88;55.64;77.19;;
60872;Laerm;46714;50.118;14.462;2024-03-29T00:39:13;68.77;52.82;79.72;;
60872;Laerm;46714;50.118;14.462;2024-03-29T00:41:38;67.79;51.07;75.79;;
60872;Laerm;46714;50.118;14.462;2024-03-29T00:44:04;68.69;55.01;75.23;;
60872;Laerm;46714;50.118;14.462;2024-03-29T00:46:29;67.14;53.49;77.41;;
60872;Laerm;46714;50.118;14.462;2024-03-29T00:48:54;68.27;56.80;76.89;;
60872;Laerm;46714;50.118;14.462;2024-03-29T00:51:20;66.90;47.95;76.45;;
60872;Laerm;46714;50.118;14.462;2024-03-29T00:53:45;68.16;49.59;76.68;;
60872;Laerm;46714;50.118;14.462;2024-03-29T00:56:11;67.28;50.73;77.03;;
60872;Laerm;46714;50.118;14.462;2024-03-29T00:58:36;67.39;52.90;76.69;;
60872;Laerm;46714;50.118;14.462;2024-03-29T01:01:01;67.30;57.11;75.73;;
60872;Laerm;46714;50.118;14.462;2024-03-29T01:03:27;67.16;48.78;75.20;;
60872;Laerm;46714;50.118;14.462;2024-03-29T01:05:56;67.52;49.06;76.73;;
60872;Laerm;46714;50.118;14.462;2024-03-29T01:08:22;68.63;51.46;77.29;;
60872;Laerm;46714;50.118;14.462;2024-03-29T01:10:48;65.82;54.08;75.04;;
60872;Laerm;46714;50.118;14.462;2024-03-29T01:13:14;65.40;44.62;77.04;;
60872;Laerm;46714;50.118;14.462;2024-03-29T01:15:39;65.16;48.66;77.03;;
60872;Laerm;46714;50.118;14.462;2024-03-29T01:18:05;65.39;46.87;77.27;;
60872;Laerm;46714;50.118;14.462;2024-03-29T01:20:30;67.24;49.66;76.63;;
60872;Laerm;46714;50.118;14.462;2024-03-29T01:22:56;67.02;53.31;75.67;;
60872;Laerm;46714;50.118;14.462;2024-03-29T01:25:21;68.21;46.78;77.66;;
60872;Laerm;46714;50.118;14.462;2024-03-29T01:27:46;65.81;53.22;76.31;;
60872;Laerm;46714;50.118;14.462;2024-03-29T01:30:12;66.63;48.76;75.46;;
60872;Laerm;46714;50.118;14.462;2024-03-29T01:32:37;67.04;46.45;78.72;;
60872;Laerm;46714;50.118;14.462;2024-03-29T01:35:04;66.44;51.08;75.55;;
60872;Laerm;46714;50.118;14.462;2024-03-29T01:37:29;69.18;52.04;78.68;;
60872;Laerm;46714;50.118;14.462;2024-03-29T01:39:56;66.92;48.64;76.13;;
60872;Laerm;46714;50.118;14.462;2024-03-29T01:42:21;67.46;49.03;76.54;;
60872;Laerm;46714;50.118;14.462;2024-03-29T01:44:47;66.37;49.79;77.81;;
60872;Laerm;46714;50.118;14.462;2024-03-29T01:47:12;66.06;44.31;76.10;;
60872;Laerm;46714;50.118;14.462;2024-03-29T01:49:38;68.55;52.08;80.40;;
60872;Laerm;46714;50.118;14.462;2024-03-29T01:52:04;65.59;51.19;76.68;;
60872;Laerm;46714;50.118;14.462;2024-03-29T01:54:30;65.36;52.57;72.86;;
60872;Laerm;46714;50.118;14.462;2024-03-29T01:56:56;67.02;51.02;75.98;;
60872;Laerm;46714;50.118;14.462;2024-03-29T01:59:22;66.51;43.86;78.97;;
60872;Laerm;46714;50.118;14.462;2024-03-29T02:01:47;64.71;49.06;74.86;;
60872;Laerm;46714;50.118;14.462;2024-03-29T02:04:14;66.10;46.64;75.02;;
60872;Laerm;46714;50.118;14.462;2024-03-29T02:06:39;65.07;43.54;76.16;;
60872;Laerm;46714;50.118;14.462;2024-03-29T02:09:05;65.22;45.07;79.95;;
60872;Laerm;46714;50.118;14.462;2024-03-29T02:11:31;66.51;45.80;74.78;;
60872;Laerm;46714;50.118;14.462;2024-03-29T02:13:57;68.85;46.78;83.61;;
60872;Laerm;46714;50.118;14.462;2024-03-29T02:16:22;63.85;48.84;73.15;;
60872;Laerm;46714;50.118;14.462;2024-03-29T02:18:47;65.96;45.63;74.25;;
60872;Laerm;46714;50.118;14.462;2024-03-29T02:21:13;66.45;49.66;75.73;;
60872;Laerm;46714;50.118;14.462;2024-03-29T02:23:43;68.35;49.58;76.87;;
60872;Laerm;46714;50.118;14.462;2024-03-29T02:26:09;66.19;47.48;76.11;;
60872;Laerm;46714;50.118;14.462;2024-03-29T02:28:35;67.17;50.86;78.43;;
60872;Laerm;46714;50.118;14.462;2024-03-29T02:31:00;66.68;43.77;76.42;;
60872;Laerm;46714;50.118;14.462;2024-03-29T02:33:25;65.96;50.62;77.01;;
60872;Laerm;46714;50.118;14.462;2024-03-29T02:35:51;67.27;54.19;78.36;;
60872;Laerm;46714;50.118;14.462;2024-03-29T02:38:16;68.25;46.57;81.55;;
60872;Laerm;46714;50.118;14.462;2024-03-29T02:40:41;67.11;51.66;78.40;;
60872;Laerm;46714;50.118;14.462;2024-03-29T02:43:07;66.60;48.64;75.55;;
60872;Laerm;46714;50.118;14.462;2024-03-29T02:45:32;65.97;41.96;77.93;;
60872;Laerm;46714;50.118;14.462;2024-03-29T02:47:58;67.94;46.35;81.85;;
60872;Laerm;46714;50.118;14.462;2024-03-29T02:50:23;68.43;51.21;80.85;;
60872;Laerm;46714;50.118;14.462;2024-03-29T02:52:48;67.10;52.18;75.87;;
60872;Laerm;46714;50.118;14.462;2024-03-29T02:55:14;67.79;54.60;80.55;;
60872;Laerm;46714;50.118;14.462;2024-03-29T02:57:40;65.93;43.58;78.44;;
60872;Laerm;46714;50.118;14.462;2024-03-29T03:00:08;65.19;42.76;75.76;;
60872;Laerm;46714;50.118;14.462;2024-03-29T03:02:38;66.91;45.01;80.06;;
60872;Laerm;46714;50.118;14.462;2024-03-29T03:05:04;65.73;46.76;75.48;;
60872;Laerm;46714;50.118;14.462;2024-03-29T03:07:30;66.92;44.69;74.88;;
60872;Laerm;46714;50.118;14.462;2024-03-29T03:10:13;68.52;53.58;77.04;;
60872;Laerm;46714;50.118;14.462;2024-03-29T03:12:57;67.04;54.58;76.07;;
60872;Laerm;46714;50.118;14.462;2024-03-29T03:15:23;64.99;47.67;72.78;;
60872;Laerm;46714;50.118;14.462;2024-03-29T03:17:48;68.68;54.38;79.33;;
60872;Laerm;46714;50.118;14.462;2024-03-29T03:20:13;67.29;57.34;73.98;;
60872;Laerm;46714;50.118;14.462;2024-03-29T03:22:41;67.50;55.84;76.89;;
60872;Laerm;46714;50.118;14.462;2024-03-29T03:25:07;64.80;54.61;72.65;;
60872;Laerm;46714;50.118;14.462;2024-03-29T03:27:32;66.16;44.58;78.13;;
60872;Laerm;46714;50.118;14.462;2024-03-29T03:29:58;66.37;49.78;77.37;;
60872;Laerm;46714;50.118;14.462;2024-03-29T03:32:23;66.16;44.58;74.96;;
60872;Laerm;46714;50.118;14.462;2024-03-29T03:34:48;66.77;51.84;76.26;;
60872;Laerm;46714;50.118;14.462;2024-03-29T03:37:14;69.41;58.36;83.18;;
60872;Laerm;46714;50.118;14.462;2024-03-29T03:39:39;63.78;48.05;73.57;;
60872;Laerm;46714;50.118;14.462;2024-03-29T03:42:04;68.74;52.48;80.06;;
60872;Laerm;46714;50.118;14.462;2024-03-29T03:44:30;68.05;57.86;76.73;;
60872;Laerm;46714;50.118;14.462;2024-03-29T03:46:55;68.00;57.04;76.20;;
60872;Laerm;46714;50.118;14.462;2024-03-29T03:49:21;67.15;48.36;78.86;;
60872;Laerm;46714;50.118;14.462;2024-03-29T03:51:46;66.79;51.43;77.98;;
60872;Laerm;46714;50.118;14.462;2024-03-29T03:54:12;66.93;49.36;76.85;;
60872;Laerm;46714;50.118;14.462;2024-03-29T03:56:37;67.99;51.98;75.81;;
60872;Laerm;46714;50.118;14.462;2024-03-29T03:59:02;68.13;51.97;78.97;;
60872;Laerm;46714;50.118;14.462;2024-03-29T04:01:28;67.28;46.30;80.26;;
60872;Laerm;46714;50.118;14.462;2024-03-29T04:03:53;68.38;47.77;83.94;;
60872;Laerm;46714;50.118;14.462;2024-03-29T04:06:18;68.38;55.36;75.75;;
60872;Laerm;46714;50.118;14.462;2024-03-29T04:08:44;66.06;52.79;74.17;;
60872;Laerm;46714;50.118;14.462;2024-03-29T04:11:10;68.18;57.60;78.07;;
60872;Laerm;46714;50.118;14.462;2024-03-29T04:13:35;69.70;55.14;76.27;;
60872;Laerm;46714;50.118;14.462;2024-03-29T04:16:05;68.17;58.25;75.91;;
60872;Laerm;46714;50.118;14.462;2024-03-29T04:18:31;68.64;58.02;79.87;;
60872;Laerm;46714;50.118;14.462;2024-03-29T04:20:57;68.61;56.07;77.68;;
60872;Laerm;46714;50.118;14.462;2024-03-29T04:23:23;69.04;58.07;75.65;;
60872;Laerm;46714;50.118;14.462;2024-03-29T04:25:53;69.53;60.18;75.50;;
60872;Laerm;46714;50.118;14.462;2024-03-29T04:28:18;69.75;61.49;75.70;;
60872;Laerm;46714;50.118;14.462;2024-03-29T04:30:53;70.26;62.78;76.46;;
60872;Laerm;46714;50.118;14.462;2024-03-29T04:33:19;69.70;59.56;77.01;;
60872;Laerm;46714;50.118;14.462;2024-03-29T04:35:59;69.66;60.19;85.12;;
60872;Laerm;46714;50.118;14.462;2024-03-29T04:38:26;69.99;57.10;77.21;;
60872;Laerm;46714;50.118;14.462;2024-03-29T04:40:53;69.04;52.29;79.10;;
60872;Laerm;46714;50.118;14.462;2024-03-29T04:43:22;71.33;62.02;79.95;;
60872;Laerm;46714;50.118;14.462;2024-03-29T04:45:47;69.91;53.40;78.74;;
60872;Laerm;46714;50.118;14.462;2024-03-29T04:48:13;71.12;61.36;80.12;;
60872;Laerm;46714;50.118;14.462;2024-03-29T04:50:38;71.30;63.36;78.18;;
60872;Laerm;46714;50.118;14.462;2024-03-29T04:53:04;69.80;60.39;76.94;;
60872;Laerm;46714;50.118;14.462;2024-03-29T04:55:29;69.99;59.97;78.77;;
60872;Laerm;46714;50.118;14.462;2024-03-29T04:57:55;71.59;62.88;81.29;;
60872;Laerm;46714;50.118;14.462;2024-03-29T05:00:20;71.33;58.77;77.93;;
60872;Laerm;46714;50.118;14.462;2024-03-29T05:02:45;70.53;61.77;77.15;;
60872;Laerm;46714;50.118;14.462;2024-03-29T05:05:11;71.07;57.78;79.07;;
60872;Laerm;46714;50.118;14.462;2024-03-29T05:07:36;71.94;63.92;79.88;;
60872;Laerm;46714;50.118;14.462;2024-03-29T05:10:02;71.84;64.91;79.51;;
60872;Laerm;46714;50.118;14.462;2024-03-29T05:12:32;70.98;62.39;76.70;;
60872;Laerm;46714;50.118;14.462;2024-03-29T05:14:57;73.64;64.44;83.63;;
60872;Laerm;46714;50.118;14.462;2024-03-29T05:17:22;71.74;61.95;80.30;;
60872;Laerm;46714;50.118;14.462;2024-03-29T05:19:51;72.20;65.57;77.79;;
60872;Laerm;46714;50.118;14.462;2024-03-29T05:22:17;72.86;65.97;83.00;;
60872;Laerm;46714;50.118;14.462;2024-03-29T05:24:42;72.53;64.03;82.73;;
60872;Laerm;46714;50.118;14.462;2024-03-29T05:27:08;72.04;64.72;81.64;;
60872;Laerm;46714;50.118;14.462;2024-03-29T05:29:33;72.52;65.66;78.61;;
60872;Laerm;46714;50.118;14.462;2024-03-29T05:31:58;73.53;66.16;77.99;;
60872;Laerm;46714;50.118;14.462;2024-03-29T05:34:24;73.43;66.25;78.88;;
60872;Laerm;46714;50.118;14.462;2024-03-29T05:36:49;72.55;65.41;78.57;;
60872;Laerm;46714;50.118;14.462;2024-03-29T05:39:15;73.20;65.85;77.60;;
60872;Laerm;46714;50.118;14.462;2024-03-29T05:41:40;73.40;67.22;77.73;;
60872;Laerm;46714;50.118;14.462;2024-03-29T05:44:06;72.94;65.78;78.89;;
60872;Laerm;46714;50.118;14.462;2024-03-29T05:46:31;73.53;67.95;79.76;;
60872;Laerm;46714;50.118;14.462;2024-03-29T05:48:57;73.43;66.31;77.92;;
60872;Laerm;46714;50.118;14.462;2024-03-29T05:51:22;73.17;64.58;80.41;;
60872;Laerm;46714;50.118;14.462;2024-03-29T05:53:48;73.20;65.02;79.90;;
60872;Laerm;46714;50.118;14.462;2024-03-29T05:56:13;73.19;65.53;80.10;;
60872;Laerm;46714;50.118;14.462;2024-03-29T05:58:38;72.27;64.68;77.50;;
60872;Laerm;46714;50.118;14.462;2024-03-29T06:01:04;73.19;63.62;79.65;;
60872;Laerm;46714;50.118;14.462;2024-03-29T06:03:29;73.17;66.26;79.86;;
60872;Laerm;46714;50.118;14.462;2024-03-29T06:05:55;73.04;66.39;78.48;;
60872;Laerm;46714;50.118;14.462;2024-03-29T06:08:20;72.27;64.99;78.33;;
60872;Laerm;46714;50.118;14.462;2024-03-29T06:10:46;73.62;65.24;80.07;;
60872;Laerm;46714;50.118;14.462;2024-03-29T06:13:12;73.17;64.79;85.06;;
60872;Laerm;46714;50.118;14.462;2024-03-29T06:15:54;73.77;66.68;80.00;;
60872;Laerm;46714;50.118;14.462;2024-03-29T06:18:38;73.23;63.50;79.81;;
60872;Laerm;46714;50.118;14.462;2024-03-29T06:21:03;72.18;65.19;77.96;;
60872;Laerm;46714;50.118;14.462;2024-03-29T06:23:29;74.10;66.42;78.21;;
60872;Laerm;46714;50.118;14.462;2024-03-29T06:25:54;74.32;64.90;82.39;;
60872;Laerm;46714;50.118;14.462;2024-03-29T06:28:19;73.64;65.81;79.08;;
60872;Laerm;46714;50.118;14.462;2024-03-29T06:30:45;78.03;65.16;100.53;;
60872;Laerm;46714;50.118;14.462;2024-03-29T06:33:11;73.34;66.68;80.62;;
60872;Laerm;46714;50.118;14.462;2024-03-29T06:35:36;73.89;63.93;83.16;;
60872;Laerm;46714;50.118;14.462;2024-03-29T06:38:02;74.15;65.83;83.95;;
60872;Laerm;46714;50.118;14.462;2024-03-29T06:40:27;73.90;68.44;79.66;;
60872;Laerm;46714;50.118;14.462;2024-03-29T06:42:53;74.65;67.97;80.52;;
60872;Laerm;46714;50.118;14.462;2024-03-29T06:45:21;74.49;68.01;80.62;;
60872;Laerm;46714;50.118;14.462;2024-03-29T06:47:46;74.70;68.45;81.73;;
60872;Laerm;46714;50.118;14.462;2024-03-29T06:50:12;74.16;66.81;78.17;;
60872;Laerm;46714;50.118;14.462;2024-03-29T06:52:37;74.91;69.52;83.00;;
60872;Laerm;46714;50.118;14.462;2024-03-29T06:55:03;74.15;66.53;78.61;;
60872;Laerm;46714;50.118;14.462;2024-03-29T06:57:28;74.08;68.10;83.58;;
60872;Laerm;46714;50.118;14.462;2024-03-29T06:59:56;73.46;66.31;78.78;;
60872;Laerm;46714;50.118;14.462;2024-03-29T07:02:22;73.89;67.37;84.79;;
60872;Laerm;46714;50.118;14.462;2024-03-29T07:04:47;73.34;66.03;80.81;;
60872;Laerm;46714;50.118;14.462;2024-03-29T07:07:12;73.29;65.50;78.50;;
60872;Laerm;46714;50.118;14.462;2024-03-29T07:09:38;74.90;66.98;86.12;;
60872;Laerm;46714;50.118;14.462;2024-03-29T07:12:03;74.22;66.42;78.90;;
60872;Laerm;46714;50.118;14.462;2024-03-29T07:14:29;74.12;64.89;81.67;;
60872;Laerm;46714;50.118;14.462;2024-03-29T07:16:56;74.68;70.41;78.82;;
60872;Laerm;46714;50.118;14.462;2024-03-29T07:19:22;75.01;67.42;81.41;;
60872;Laerm;46714;50.118;14.462;2024-03-29T07:21:47;74.64;65.47;83.22;;
60872;Laerm;46714;50.118;14.462;2024-03-29T07:24:13;74.95;70.36;82.84;;
60872;Laerm;46714;50.118;14.462;2024-03-29T07:26:38;75.14;68.88;81.55;;
60872;Laerm;46714;50.118;14.462;2024-03-29T07:29:05;74.93;69.38;83.33;;
60872;Laerm;46714;50.118;14.462;2024-03-29T07:31:32;74.60;68.51;82.87;;
60872;Laerm;46714;50.118;14.462;2024-03-29T07:33:58;74.88;68.83;78.74;;
60872;Laerm;46714;50.118;14.462;2024-03-29T07:36:23;75.10;68.60;88.20;;
60872;Laerm;46714;50.118;14.462;2024-03-29T07:38:51;73.80;68.54;78.11;;
60872;Laerm;46714;50.118;14.462;2024-03-29T07:41:17;74.18;66.03;79.47;;
60872;Laerm;46714;50.118;14.462;2024-03-29T07:43:54;74.95;69.63;80.22;;
60872;Laerm;46714;50.118;14.462;2024-03-29T07:46:22;75.01;69.17;80.05;;
60872;Laerm;46714;50.118;14.462;2024-03-29T07:48:49;74.49;67.94;81.36;;
60872;Laerm;46714;50.118;14.462;2024-03-29T07:51:14;74.71;65.56;79.86;;
60872;Laerm;46714;50.118;14.462;2024-03-29T07:53:39;75.24;70.46;79.90;;
60872;Laerm;46714;50.118;14.462;2024-03-29T07:56:05;74.63;68.60;80.66;;
60872;Laerm;46714;50.118;14.462;2024-03-29T07:58:30;74.08;69.25;79.08;;
60872;Laerm;46714;50.118;14.462;2024-03-29T08:00:56;74.00;66.91;78.63;;
60872;Laerm;46714;50.118;14.462;2024-03-29T08:03:22;75.11;69.87;79.22;;
60872;Laerm;46714;50.118;14.462;2024-03-29T08:06:00;74.75;68.66;78.89;;
60872;Laerm;46714;50.118;14.462;2024-03-29T08:08:30;74.83;67.81;81.50;;
60872;Laerm;46714;50.118;14.462;2024-03-29T08:10:55;74.67;69.62;79.84;;
60872;Laerm;46714;50.118;14.462;2024-03-29T08:13:20;74.76;69.60;83.73;;
60872;Laerm;46714;50.118;14.462;2024-03-29T08:15:47;74.80;70.77;79.59;;
60872;Laerm;46714;50.118;14.462;2024-03-29T08:18:13;75.14;69.04;82.12;;
60872;Laerm;46714;50.118;14.462;2024-03-29T08:20:38;74.92;69.36;78.34;;
60872;Laerm;46714;50.118;14.462;2024-03-29T08:23:03;75.16;71.48;79.56;;
60872;Laerm;46714;50.118;14.462;2024-03-29T08:25:29;75.32;71.32;80.95;;
60872;Laerm;46714;50.118;14.462;2024-03-29T08:27:55;74.96;68.15;80.08;;
60872;Laerm;46714;50.118;14.462;2024-03-29T08:30:25;75.15;69.88;78.71;;
60872;Laerm;46714;50.118;14.462;2024-03-29T08:32:50;74.66;70.32;79.13;;
60872;Laerm;46714;50.118;14.462;2024-03-29T08:35:17;75.01;69.31;79.00;;
60872;Laerm;46714;50.118;14.462;2024-03-29T08:37:43;75.15;69.79;79.40;;
60872;Laerm;46714;50.118;14.462;2024-03-29T08:40:09;74.81;69.47;77.62;;
60872;Laerm;46714;50.118;14.462;2024-03-29T08:42:34;75.06;69.06;80.16;;
60872;Laerm;46714;50.118;14.462;2024-03-29T08:45:03;75.70;70.03;81.21;;
60872;Laerm;46714;50.118;14.462;2024-03-29T08:47:28;74.79;70.32;78.61;;
60872;Laerm;46714;50.118;14.462;2024-03-29T08:49:54;75.81;70.10;91.08;;
60872;Laerm;46714;50.118;14.462;2024-03-29T08:52:19;75.26;69.65;78.58;;
60872;Laerm;46714;50.118;14.462;2024-03-29T08:54:45;75.18;70.77;78.82;;
60872;Laerm;46714;50.118;14.462;2024-03-29T08:57:10;74.84;70.96;81.00;;
60872;Laerm;46714;50.118;14.462;2024-03-29T08:59:35;74.41;68.42;79.96;;
60872;Laerm;46714;50.118;14.462;2024-03-29T09:02:05;74.80;70.27;78.45;;
60872;Laerm;46714;50.118;14.462;2024-03-29T09:04:33;74.91;69.84;78.43;;
60872;Laerm;46714;50.118;14.462;2024-03-29T09:07:02;75.48;71.57;80.42;;
60872;Laerm;46714;50.118;14.462;2024-03-29T09:09:31;74.25;69.68;78.77;;
60872;Laerm;46714;50.118;14.462;2024-03-29T09:11:57;74.19;68.35;77.73;;
60872;Laerm;46714;50.118;14.462;2024-03-29T09:14:23;74.06;69.85;77.71;;
60872;Laerm;46714;50.118;14.462;2024-03-29T09:16:49;74.30;69.75;79.96;;
60872;Laerm;46714;50.118;14.462;2024-03-29T09:19:15;73.33;68.32;78.12;;
60872;Laerm;46714;50.118;14.462;2024-03-29T09:21:41;73.81;67.32;78.63;;
60872;Laerm;46714;50.118;14.462;2024-03-29T09:24:06;74.02;69.12;79.90;;
60872;Laerm;46714;50.118;14.462;2024-03-29T09:26:32;74.63;70.45;81.17;;
60872;Laerm;46714;50.118;14.462;2024-03-29T09:28:58;74.25;68.79;81.83;;
60872;Laerm;46714;50.118;14.462;2024-03-29T09:31:23;74.08;69.43;80.76;;
60872;Laerm;46714;50.118;14.462;2024-03-29T09:33:49;74.18;69.57;82.52;;
60872;Laerm;46714;50.118;14.462;2024-03-29T09:36:20;73.74;69.39;77.25;;
60872;Laerm;46714;50.118;14.462;2024-03-29T09:38:46;75.14;66.90;92.88;;
60872;Laerm;46714;50.118;14.462;2024-03-29T09:41:15;72.90;65.73;79.11;;
60872;Laerm;46714;50.118;14.462;2024-03-29T09:43:45;73.13;66.96;78.06;;
60872;Laerm;46714;50.118;14.462;2024-03-29T09:46:11;73.85;67.77;79.22;;
60872;Laerm;46714;50.118;14.462;2024-03-29T09:48:38;74.69;65.99;86.90;;
60872;Laerm;46714;50.118;14.462;2024-03-29T09:51:05;74.41;67.74;79.40;;
60872;Laerm;46714;50.118;14.462;2024-03-29T09:53:33;74.03;68.92;78.55;;
60872;Laerm;46714;50.118;14.462;2024-03-29T09:56:00;73.53;69.03;86.22;;
60872;Laerm;46714;50.118;14.462;2024-03-29T09:58:26;73.87;67.82;87.56;;
60872;Laerm;46714;50.118;14.462;2024-03-29T10:00:52;73.13;68.41;81.98;;
60872;Laerm;46714;50.118;14.462;2024-03-29T10:03:17;76.52;70.49;94.45;;
60872;Laerm;46714;50.118;14.462;2024-03-29T10:05:46;74.25;70.35;80.07;;
60872;Laerm;46714;50.118;14.462;2024-03-29T10:08:12;75.13;70.11;80.40;;
60872;Laerm;46714;50.118;14.462;2024-03-29T10:10:40;75.40;68.16;89.74;;
60872;Laerm;46714;50.118;14.462;2024-03-29T10:13:06;75.01;71.15;85.49;;
60872;Laerm;46714;50.118;14.462;2024-03-29T10:15:31;76.86;70.83;95.93;;
60872;Laerm;46714;50.118;14.462;2024-03-29T10:18:02;77.02;69.45;100.22;;
60872;Laerm;46714;50.118;14.462;2024-03-29T10:20:28;74.62;67.66;79.79;;
60872;Laerm;46714;50.118;14.462;2024-03-29T10:22:53;74.75;71.21;79.04;;
60872;Laerm;46714;50.118;14.462;2024-03-29T10:25:21;74.97;70.07;91.70;;
60872;Laerm;46714;50.118;14.462;2024-03-29T10:27:46;75.14;69.38;87.88;;
60872;Laerm;46714;50.118;14.462;2024-03-29T10:30:12;74.10;67.64;79.51;;
60872;Laerm;46714;50.118;14.462;2024-03-29T10:32:42;74.01;69.93;77.60;;
60872;Laerm;46714;50.118;14.462;2024-03-29T10:35:08;73.72;68.49;77.53;;
60872;Laerm;46714;50.118;14.462;2024-03-29T10:37:37;83.72;68.49;101.96;;
60872;Laerm;46714;50.118;14.462;2024-03-29T10:40:09;75.50;65.11;91.40;;
60872;Laerm;46714;50.118;14.462;2024-03-29T10:42:37;73.09;65.19;77.14;;
60872;Laerm;46714;50.118;14.462;2024-03-29T10:45:05;73.63;68.72;82.92;;
60872;Laerm;46714;50.118;14.462;2024-03-29T10:47:32;73.37;69.22;77.69;;
60872;Laerm;46714;50.118;14.462;2024-03-29T10:49:58;73.64;68.61;80.77;;
60872;Laerm;46714;50.118;14.462;2024-03-29T10:52:24;73.06;65.63;80.78;;
60872;Laerm;46714;50.118;14.462;2024-03-29T10:54:51;73.38;66.96;78.88;;
60872;Laerm;46714;50.118;14.462;2024-03-29T10:57:24;72.70;66.67;77.01;;
60872;Laerm;46714;50.118;14.462;2024-03-29T11:02:45;73.85;68.62;78.81;;
60872;Laerm;46714;50.118;14.462;2024-03-29T11:05:14;73.69;67.84;79.63;;
60872;Laerm;46714;50.118;14.462;2024-03-29T11:07:42;74.90;68.99;92.16;;
60872;Laerm;46714;50.118;14.462;2024-03-29T11:10:20;74.09;68.70;79.58;;
60872;Laerm;46714;50.118;14.462;2024-03-29T11:13:09;74.07;68.22;80.06;;
60872;Laerm;46714;50.118;14.462;2024-03-29T11:15:37;73.61;64.20;78.68;;
60872;Laerm;46714;50.118;14.462;2024-03-29T11:18:07;74.28;69.38;80.26;;
60872;Laerm;46714;50.118;14.462;2024-03-29T11:20:34;75.44;71.23;85.69;;
60872;Laerm;46714;50.118;14.462;2024-03-29T11:23:08;74.03;68.24;80.17;;
60872;Laerm;46714;50.118;14.462;2024-03-29T11:25:41;74.78;69.93;81.29;;
60872;Laerm;46714;50.118;14.462;2024-03-29T11:28:08;74.65;71.15;78.53;;
60872;Laerm;46714;50.118;14.462;2024-03-29T11:30:42;74.80;70.11;81.63;;
60872;Laerm;46714;50.118;14.462;2024-03-29T11:33:07;74.27;69.64;78.22;;
60872;Laerm;46714;50.118;14.462;2024-03-29T11:35:39;75.14;71.40;82.90;;
60872;Laerm;46714;50.118;14.462;2024-03-29T11:38:05;74.83;70.67;79.51;;
60872;Laerm;46714;50.118;14.462;2024-03-29T11:40:30;75.60;70.86;88.65;;
60872;Laerm;46714;50.118;14.462;2024-03-29T11:42:56;74.11;68.90;77.82;;
60872;Laerm;46714;50.118;14.462;2024-03-29T11:45:24;74.33;69.33;79.68;;
60872;Laerm;46714;50.118;14.462;2024-03-29T11:47:54;74.32;70.69;78.68;;
60872;Laerm;46714;50.118;14.462;2024-03-29T11:50:20;74.65;68.87;79.42;;
60872;Laerm;46714;50.118;14.462;2024-03-29T11:52:45;75.05;67.96;83.36;;
60872;Laerm;46714;50.118;14.462;2024-03-29T11:55:11;74.34;70.50;77.32;;
60872;Laerm;46714;50.118;14.462;2024-03-29T11:57:36;75.09;67.97;81.88;;
60872;Laerm;46714;50.118;14.462;2024-03-29T12:00:07;74.23;68.85;78.26;;
60872;Laerm;46714;50.118;14.462;2024-03-29T12:02:35;74.37;68.74;83.12;;
60872;Laerm;46714;50.118;14.462;2024-03-29T12:05:00;74.50;68.77;81.28;;
60872;Laerm;46714;50.118;14.462;2024-03-29T12:07:26;74.94;71.67;78.29;;
60872;Laerm;46714;50.118;14.462;2024-03-29T12:09:51;75.09;70.42;79.75;;
60872;Laerm;46714;50.118;14.462;2024-03-29T12:12:17;74.81;68.39;78.57;;
60872;Laerm;46714;50.118;14.462;2024-03-29T12:14:43;74.06;68.62;79.17;;
60872;Laerm;46714;50.118;14.462;2024-03-29T12:17:10;74.64;70.47;78.38;;
60872;Laerm;46714;50.118;14.462;2024-03-29T12:19:36;75.20;70.38;83.37;;
60872;Laerm;46714;50.118;14.462;2024-03-29T12:22:04;75.05;68.59;89.99;;
60872;Laerm;46714;50.118;14.462;2024-03-29T12:24:29;74.94;71.16;81.31;;
60872;Laerm;46714;50.118;14.462;2024-03-29T12:26:55;74.86;71.25;79.17;;
60872;Laerm;46714;50.118;14.462;2024-03-29T12:29:20;75.62;72.03;86.22;;
60872;Laerm;46714;50.118;14.462;2024-03-29T12:31:56;75.54;71.10;83.80;;
60872;Laerm;46714;50.118;14.462;2024-03-29T12:34:22;75.17;71.43;78.72;;
60872;Laerm;46714;50.118;14.462;2024-03-29T12:36:47;76.47;69.74;91.90;;
60872;Laerm;46714;50.118;14.462;2024-03-29T12:39:13;74.43;69.91;78.55;;
60872;Laerm;46714;50.118;14.462;2024-03-29T12:41:39;74.86;70.41;81.09;;
60872;Laerm;46714;50.118;14.462;2024-03-29T12:44:05;76.06;68.87;94.08;;
60872;Laerm;46714;50.118;14.462;2024-03-29T12:46:31;74.93;70.19;80.04;;
60872;Laerm;46714;50.118;14.462;2024-03-29T12:49:00;74.76;70.45;78.44;;
60872;Laerm;46714;50.118;14.462;2024-03-29T12:51:29;74.31;69.60;78.57;;
60872;Laerm;46714;50.118;14.462;2024-03-29T12:53:55;74.80;69.89;79.71;;
60872;Laerm;46714;50.118;14.462;2024-03-29T12:56:25;74.56;69.05;78.51;;
60872;Laerm;46714;50.118;14.462;2024-03-29T12:58:51;73.93;67.92;77.77;;
60872;Laerm;46714;50.118;14.462;2024-03-29T13:01:16;74.87;70.20;84.06;;
60872;Laerm;46714;50.118;14.462;2024-03-29T13:03:41;73.63;68.69;77.09;;
60872;Laerm;46714;50.118;14.462;2024-03-29T13:06:09;74.24;69.09;80.60;;
60872;Laerm;46714;50.118;14.462;2024-03-29T13:08:34;74.06;69.53;77.67;;
60872;Laerm;46714;50.118;14.462;2024-03-29T13:11:00;73.92;64.71;77.75;;
60872;Laerm;46714;50.118;14.462;2024-03-29T13:13:26;77.63;67.59;97.14;;
60872;Laerm;46714;50.118;14.462;2024-03-29T13:15:51;74.52;67.20;80.88;;
60872;Laerm;46714;50.118;14.462;2024-03-29T13:18:16;74.62;69.27;78.54;;
60872;Laerm;46714;50.118;14.462;2024-03-29T13:20:43;74.59;67.32;80.33;;
60872;Laerm;46714;50.118;14.462;2024-03-29T13:23:09;75.56;70.14;84.74;;
60872;Laerm;46714;50.118;14.462;2024-03-29T13:25:35;75.92;69.87;89.07;;
60872;Laerm;46714;50.118;14.462;2024-03-29T13:28:01;74.62;69.93;79.54;;
60872;Laerm;46714;50.118;14.462;2024-03-29T13:30:27;79.78;68.04;102.13;;